Time;durP1;ratioP1;P1;durP2;ratioP2;P2;SDS_P1;SDS_P2;PMS_P1;PMS_P2;Temp;Humidity;BMP_temperature;BMP_pressure;BME280_temperature;BME280_humidity;BME280_pressure;Samples;Min_cycle;Max_cycle;Signal;HPM_P1;HPM_P2
2022/03/17 00:02:16;;;;;;;31.70;27.83;;;;;;;13.58;47.37;99323.19;7035836;28;20293;-79
2022/03/17 00:05:38;;;;;;;32.63;27.50;;;;;;;13.53;47.84;99320.28;7037953;28;21049;-79
2022/03/17 00:09:00;;;;;;;34.93;28.37;;;;;;;13.66;47.04;99312.97;7039455;28;20222;-79
2022/03/17 00:12:23;;;;;;;31.50;26.00;;;;;;;13.47;47.63;99315.69;7040742;28;20196;-79
2022/03/17 00:15:45;;;;;;;29.60;25.83;;;;;;;13.53;47.32;99318.41;7035788;28;20249;-79
2022/03/17 00:19:09;;;;;;;30.13;26.67;;;;;;;14.25;45.38;99304.63;7032093;28;20222;-79
2022/03/17 00:22:30;;;;;;;33.20;28.23;;;;;;;13.58;46.81;99315.06;7033498;28;20744;-81
2022/03/17 00:25:52;;;;;;;30.13;26.07;;;;;;;13.88;45.86;99299.97;7034453;28;20739;-79
2022/03/17 00:29:19;;;;;;;33.33;26.67;;;;;;;13.72;46.10;99324.81;7040108;28;20282;-79
2022/03/17 00:32:40;;;;;;;29.67;26.47;;;;;;;13.31;46.84;99273.66;7040160;28;20201;-79
2022/03/17 00:36:02;;;;;;;29.57;25.87;;;;;;;13.51;46.33;99312.34;7035677;28;20211;-79
2022/03/17 00:39:25;;;;;;;32.23;26.87;;;;;;;14.04;45.57;99321.19;7026553;28;20678;-79
2022/03/17 00:42:46;;;;;;;34.43;28.40;;;;;;;13.78;45.91;99332.09;7030995;28;20187;-80
2022/03/17 00:46:09;;;;;;;31.70;25.87;;;;;;;13.91;45.58;99332.03;7038382;28;20253;-80
2022/03/17 00:49:31;;;;;;;31.40;26.97;;;;;;;13.95;45.42;99344.13;7038792;28;20218;-80
2022/03/17 00:52:52;;;;;;;31.80;26.37;;;;;;;14.12;44.98;99334.47;7038960;28;20207;-80
2022/03/17 00:56:14;;;;;;;29.87;26.53;;;;;;;14.26;44.39;99327.97;7030769;28;20226;-80
2022/03/17 00:59:37;;;;;;;31.27;26.53;;;;;;;13.91;44.80;99346.44;7034781;28;20249;-79
2022/03/17 01:03:00;;;;;;;32.90;27.00;;;;;;;14.10;44.40;99326.56;7027418;28;20570;-80
2022/03/17 01:06:22;;;;;;;29.83;25.43;;;;;;;14.00;44.69;99326.19;7037804;28;20601;-79
2022/03/17 01:09:44;;;;;;;31.23;25.57;;;;;;;14.07;44.28;99313.44;7038998;28;20216;-79
2022/03/17 01:13:06;;;;;;;31.60;25.77;;;;;;;13.98;44.31;99322.03;7033035;28;20211;-79
2022/03/17 01:16:27;;;;;;;31.47;26.67;;;;;;;13.49;45.32;99294.63;7030541;28;20221;-80
2022/03/17 01:19:51;;;;;;;31.20;25.67;;;;;;;13.57;45.75;99316.91;7037420;28;20196;-79
2022/03/17 01:23:12;;;;;;;28.20;25.10;;;;;;;13.82;44.58;99317.06;7028417;28;20240;-79
2022/03/17 01:26:34;;;;;;;31.60;26.23;;;;;;;13.55;45.61;99315.47;7030049;28;20702;-80
2022/03/17 01:29:55;;;;;;;32.07;26.47;;;;;;;14.12;45.13;99329.91;7039450;28;20227;-80
2022/03/17 01:33:17;;;;;;;31.73;26.30;;;;;;;14.32;45.04;99332.53;7036730;28;20231;-79
2022/03/17 01:36:40;;;;;;;31.77;25.80;;;;;;;14.01;45.13;99302.59;7037833;28;20222;-80
2022/03/17 01:40:04;;;;;;;31.70;26.70;;;;;;;14.21;44.85;99327.81;7037077;28;20203;-79
2022/03/17 01:43:25;;;;;;;31.10;25.70;;;;;;;14.33;44.51;99313.34;7034597;28;20257;-79
2022/03/17 01:50:26;;;;;;;32.07;26.30;;;;;;;13.64;45.41;99338.59;7026816;28;20229;-79
2022/03/17 01:53:49;;;;;;;30.57;25.67;;;;;;;14.10;44.53;99344.72;7032308;28;20233;-80
2022/03/17 01:57:14;;;;;;;30.80;25.17;;;;;;;13.48;45.90;99349.88;7030920;28;20219;-79
2022/03/17 02:00:37;;;;;;;33.37;26.37;;;;;;;14.03;45.28;99333.03;7039852;28;20205;-80
2022/03/17 02:03:59;;;;;;;29.80;24.93;;;;;;;13.74;45.58;99323.56;7030628;28;20293;-79
2022/03/17 02:07:21;;;;;;;32.03;26.07;;;;;;;13.60;45.54;99323.78;7024210;28;20232;-79
2022/03/17 02:14:24;;;;;;;30.83;25.80;;;;;;;13.71;45.67;99329.41;7035225;28;20201;-79
2022/03/17 02:17:45;;;;;;;32.97;28.33;;;;;;;13.81;45.75;99334.38;7034288;28;20226;-79
2022/03/17 02:21:08;;;;;;;32.00;26.30;;;;;;;14.06;45.03;99325.34;7038362;28;20210;-79
2022/03/17 02:28:11;;;;;;;31.20;25.97;;;;;;;14.08;44.96;99344.09;7028156;28;20234;-78
2022/03/17 02:31:34;;;;;;;34.40;27.27;;;;;;;13.86;46.12;99343.53;7034962;28;20350;-79
2022/03/17 02:34:56;;;;;;;32.40;26.00;;;;;;;13.96;46.22;99345.78;7031755;28;20211;-79
2022/03/17 02:38:18;;;;;;;34.67;27.80;;;;;;;13.52;47.39;99349.22;7034346;28;20280;-79
2022/03/17 02:41:41;;;;;;;30.53;25.60;;;;;;;13.74;45.97;99356.06;7035225;28;20197;-78
2022/03/17 02:45:04;;;;;;;35.07;26.40;;;;;;;13.79;46.05;99348.16;7047444;28;20342;-80
2022/03/17 02:48:26;;;;;;;34.17;27.13;;;;;;;13.82;46.06;99347.72;7024805;28;20228;-79
2022/03/17 02:51:47;;;;;;;30.90;26.20;;;;;;;13.94;45.55;99366.88;7007832;28;20191;-79
2022/03/17 02:55:11;;;;;;;29.87;25.27;;;;;;;14.06;45.34;99370.59;7016971;28;20231;-80
2022/03/17 02:58:34;;;;;;;34.43;26.93;;;;;;;13.94;46.15;99365.00;7020697;28;20314;-80
2022/03/17 03:01:56;;;;;;;33.17;26.47;;;;;;;13.46;46.36;99369.03;7018040;28;20207;-79
2022/03/17 03:05:17;;;;;;;32.17;26.70;;;;;;;13.71;46.48;99358.38;7002093;28;20199;-80
2022/03/17 03:08:39;;;;;;;31.30;26.23;;;;;;;13.64;47.04;99379.25;7001618;28;20319;-79
2022/03/17 03:12:01;;;;;;;31.40;26.30;;;;;;;13.30;48.28;99368.63;7001148;28;20288;-79
2022/03/17 03:15:24;;;;;;;31.20;26.23;;;;;;;13.39;47.92;99367.41;7002436;28;20246;-80
2022/03/17 03:18:45;;;;;;;33.57;27.93;;;;;;;13.52;46.88;99372.78;7004681;28;20647;-80
2022/03/17 03:22:07;;;;;;;36.60;27.27;;;;;;;13.47;46.11;99369.88;7005943;28;20223;-80
2022/03/17 03:25:29;;;;;;;37.03;26.13;;;;;;;13.06;46.91;99369.25;7004904;28;20247;-80
2022/03/17 03:28:50;;;;;;;35.37;26.63;;;;;;;13.19;46.22;99361.97;7005738;28;20249;-80
2022/03/17 03:32:13;;;;;;;35.83;27.67;;;;;;;13.17;46.10;99369.44;7005639;28;20226;-80
2022/03/17 03:39:14;;;;;;;34.17;26.77;;;;;;;13.35;46.49;99376.97;7004441;28;20565;-80
2022/03/17 03:42:36;;;;;;;29.90;24.37;;;;;;;13.34;46.45;99375.31;7004335;28;20206;-80
2022/03/17 03:45:57;;;;;;;32.43;26.07;;;;;;;13.46;46.03;99369.03;7003701;28;20228;-79
2022/03/17 03:49:21;;;;;;;32.63;25.70;;;;;;;13.60;45.42;99372.56;7000329;28;20292;-79
2022/03/17 03:52:43;;;;;;;32.50;26.20;;;;;;;13.47;46.26;99384.28;7000554;28;20213;-80
2022/03/17 03:56:05;;;;;;;34.00;26.87;;;;;;;13.40;47.28;99388.00;6999923;28;20235;-80
2022/03/17 03:59:29;;;;;;;30.87;25.47;;;;;;;13.37;48.09;99391.97;7000020;28;20257;-80
2022/03/17 04:02:51;;;;;;;35.50;27.57;;;;;;;13.51;47.03;99393.63;7000704;28;20215;-79
2022/03/17 04:06:15;;;;;;;33.17;26.43;;;;;;;13.49;46.78;99392.16;7001362;28;20233;-80
2022/03/17 04:09:39;;;;;;;34.43;26.97;;;;;;;13.68;46.14;99407.59;7005494;28;20357;-79
2022/03/17 04:13:01;;;;;;;31.20;25.63;;;;;;;13.76;45.72;99399.22;7005090;28;20301;-80
2022/03/17 04:16:22;;;;;;;36.20;27.10;;;;;;;13.32;46.69;99399.88;7005310;28;20244;-79
2022/03/17 04:19:44;;;;;;;35.50;27.07;;;;;;;13.59;45.73;99406.13;7005686;28;20215;-80
2022/03/17 04:23:07;;;;;;;37.40;28.23;;;;;;;13.11;46.57;99419.00;7003907;28;20241;-79
2022/03/17 04:26:29;;;;;;;33.83;28.10;;;;;;;13.29;45.60;99369.69;6998673;28;20698;-79
2022/03/17 04:29:50;;;;;;;32.00;25.70;;;;;;;13.67;45.25;99416.75;7000437;28;20204;-79
2022/03/17 04:33:12;;;;;;;32.60;26.43;;;;;;;13.72;44.89;99401.53;6999959;28;20384;-79
2022/03/17 04:36:33;;;;;;;32.07;26.03;;;;;;;13.61;45.13;99407.59;6998827;28;20260;-79
2022/03/17 04:39:58;;;;;;;33.80;27.37;;;;;;;13.76;44.59;99413.59;6999428;28;20297;-79
2022/03/17 04:43:20;;;;;;;32.00;25.40;;;;;;;13.79;44.91;99436.75;6999258;28;20217;-79
2022/03/17 04:46:41;;;;;;;33.03;26.37;;;;;;;13.74;45.23;99417.59;7004157;28;20228;-80
2022/03/17 04:50:03;;;;;;;31.87;25.43;;;;;;;13.54;45.42;99431.16;7006228;28;20244;-79
2022/03/17 04:53:29;;;;;;;35.97;26.53;;;;;;;12.88;46.34;99433.94;7002193;28;20219;-79
2022/03/17 04:56:52;;;;;;;34.17;26.77;;;;;;;13.36;45.42;99443.63;6998836;28;20695;-79
2022/03/17 05:00:15;;;;;;;29.97;24.93;;;;;;;13.40;45.35;99448.41;6997971;28;20214;-80
2022/03/17 05:03:37;;;;;;;31.87;26.90;;;;;;;13.09;45.97;99456.31;6998831;28;20286;-79
2022/03/17 05:06:59;;;;;;;34.73;26.40;;;;;;;13.40;45.29;99445.72;6998132;28;20238;-80
2022/03/17 05:10:21;;;;;;;34.77;26.57;;;;;;;13.44;45.37;99454.25;6998563;28;20664;-79
2022/03/17 05:13:44;;;;;;;32.13;26.77;;;;;;;12.72;46.09;99432.44;6998304;28;20204;-79
2022/03/17 05:17:06;;;;;;;33.30;26.73;;;;;;;13.09;46.07;99450.88;6997835;28;20898;-79
2022/03/17 05:20:28;;;;;;;34.13;26.33;;;;;;;13.20;45.38;99441.31;6998648;28;20214;-79
2022/03/17 05:23:49;;;;;;;33.20;24.77;;;;;;;13.22;45.24;99452.81;7002849;28;20559;-79
2022/03/17 05:27:11;;;;;;;32.33;24.97;;;;;;;13.18;45.99;99451.53;7026797;28;20236;-79
2022/03/17 05:30:34;;;;;;;32.33;26.10;;;;;;;13.13;46.94;99454.00;7028519;28;20204;-79
2022/03/17 05:33:56;;;;;;;37.17;26.83;;;;;;;12.86;47.74;99417.09;7026412;28;20211;-80
2022/03/17 05:37:17;;;;;;;35.00;26.60;;;;;;;13.43;46.68;99468.84;7026238;28;20226;-79
2022/03/17 05:40:39;;;;;;;34.60;27.63;;;;;;;13.21;47.95;99461.97;7028846;28;20211;-79
2022/03/17 05:44:01;;;;;;;36.03;28.60;;;;;;;13.24;47.24;99469.66;7041865;28;20346;-79
2022/03/17 05:47:23;;;;;;;34.17;26.37;;;;;;;13.36;47.03;99476.13;7031126;28;20229;-79
2022/03/17 05:50:45;;;;;;;34.37;26.77;;;;;;;13.22;46.66;99477.16;7023648;28;20793;-79
2022/03/17 05:54:07;;;;;;;30.33;25.43;;;;;;;13.41;46.17;99473.66;7024682;28;20229;-79
2022/03/17 05:57:28;;;;;;;35.63;27.07;;;;;;;13.50;45.96;99484.06;7022792;28;20218;-79
2022/03/17 06:00:50;;;;;;;34.63;26.07;;;;;;;13.07;46.61;99481.91;7024144;28;20341;-80
2022/03/17 06:04:12;;;;;;;33.57;26.43;;;;;;;13.27;46.19;99474.69;7021356;28;20367;-80
2022/03/17 06:07:38;;;;;;;36.80;28.97;;;;;;;13.26;47.10;99483.81;7000735;28;20267;-79
2022/03/17 06:10:59;;;;;;;34.73;27.07;;;;;;;13.23;48.21;99503.19;7001951;28;20730;-80
2022/03/17 06:14:21;;;;;;;33.50;26.57;;;;;;;13.22;48.73;99504.25;7023405;28;20210;-80
2022/03/17 06:17:44;;;;;;;34.20;27.60;;;;;;;13.05;48.74;99497.53;7031988;28;20700;-79
2022/03/17 06:21:07;;;;;;;34.50;26.53;;;;;;;13.05;48.10;99508.38;7032135;28;20231;-82
2022/03/17 06:24:29;;;;;;;34.80;26.73;;;;;;;12.19;49.93;99497.28;7032493;28;20201;-79
2022/03/17 06:27:51;;;;;;;36.17;27.43;;;;;;;13.15;48.18;99530.47;7031380;28;20321;-80
2022/03/17 06:31:12;;;;;;;37.10;29.27;;;;;;;13.07;48.18;99531.50;7030959;28;20250;-79
2022/03/17 06:34:34;;;;;;;34.47;26.80;;;;;;;13.17;47.82;99528.41;7030012;28;20227;-82
2022/03/17 06:37:59;;;;;;;36.33;27.57;;;;;;;13.19;46.87;99515.47;7028884;28;20217;-79
2022/03/17 06:41:20;;;;;;;31.43;27.07;;;;;;;12.26;49.01;99509.84;7029574;28;20338;-79
2022/03/17 06:44:42;;;;;;;34.17;25.57;;;;;;;12.83;48.14;99509.50;7029357;28;20212;-80
2022/03/17 06:48:04;;;;;;;35.53;27.30;;;;;;;13.39;46.72;99506.34;7031544;28;20230;-79
2022/03/17 06:51:26;;;;;;;34.33;27.53;;;;;;;13.66;46.48;99502.63;7028335;28;20694;-80
2022/03/17 06:54:49;;;;;;;33.80;26.73;;;;;;;13.47;47.74;99510.75;7032272;28;20366;-80
2022/03/17 06:58:10;;;;;;;35.33;26.90;;;;;;;13.69;47.20;99517.66;7028769;28;20229;-80
2022/03/17 07:01:32;;;;;;;33.20;26.20;;;;;;;13.72;47.07;99515.34;7030230;28;20612;-80
2022/03/17 07:04:53;;;;;;;34.37;26.37;;;;;;;13.69;47.71;99523.88;7028742;28;20206;-80
2022/03/17 07:08:15;;;;;;;32.90;26.33;;;;;;;13.77;47.56;99549.97;7033629;28;20582;-80
2022/03/17 07:11:38;;;;;;;34.40;26.87;;;;;;;13.66;47.79;99553.28;7034158;28;20255;-81
2022/03/17 07:14:59;;;;;;;34.80;27.43;;;;;;;13.48;48.15;99558.47;7032467;28;20205;-80
2022/03/17 07:18:21;;;;;;;36.87;27.27;;;;;;;13.67;46.84;99566.63;7032084;28;20271;-81
2022/03/17 07:21:43;;;;;;;33.80;27.13;;;;;;;13.76;46.30;99562.66;7033093;28;20239;-81
2022/03/17 07:25:05;;;;;;;35.40;27.20;;;;;;;13.92;46.17;99580.44;7033741;28;20746;-81
2022/03/17 07:28:28;;;;;;;33.83;26.77;;;;;;;13.82;47.16;99580.84;7032441;28;20231;-81
2022/03/17 07:31:52;;;;;;;34.33;26.87;;;;;;;14.03;45.37;99594.19;7033701;28;20230;-80
2022/03/17 07:35:14;;;;;;;32.57;25.97;;;;;;;14.19;44.96;99590.25;7027659;28;20217;-79
2022/03/17 07:38:36;;;;;;;34.97;26.50;;;;;;;14.28;45.09;99599.88;7028625;28;20228;-79
2022/03/17 07:41:58;;;;;;;31.10;25.27;;;;;;;14.55;43.93;99598.78;7028858;28;20239;-79
2022/03/17 07:45:20;;;;;;;33.80;25.00;;;;;;;14.56;43.84;99614.00;7029286;28;20254;-79
2022/03/17 07:48:43;;;;;;;34.97;25.97;;;;;;;14.55;44.18;99621.34;7027934;28;20707;-79
2022/03/17 07:52:05;;;;;;;33.17;26.17;;;;;;;14.67;44.02;99625.06;7030295;28;20203;-81
2022/03/17 07:55:28;;;;;;;31.07;26.17;;;;;;;14.54;44.13;99629.69;7031494;28;20298;-79
2022/03/17 07:58:50;;;;;;;31.13;25.73;;;;;;;14.35;44.04;99616.97;7027367;28;20230;-78
2022/03/17 08:02:13;;;;;;;33.43;27.07;;;;;;;13.94;45.26;99624.44;7029626;28;20196;-79
2022/03/17 08:05:35;;;;;;;34.33;26.13;;;;;;;14.36;44.70;99626.78;7028507;28;20299;-79
2022/03/17 08:08:57;;;;;;;32.63;25.63;;;;;;;14.43;43.99;99625.72;7028965;28;20225;-79
2022/03/17 08:12:18;;;;;;;34.43;25.17;;;;;;;14.50;43.37;99621.13;7029712;28;20207;-79
2022/03/17 08:15:42;;;;;;;31.03;24.43;;;;;;;14.83;42.40;99624.63;7028895;28;20207;-80
2022/03/17 08:19:08;;;;;;;31.27;25.37;;;;;;;14.71;43.43;99617.34;7028951;28;20369;-80
2022/03/17 08:22:29;;;;;;;30.83;26.33;;;;;;;14.87;43.59;99625.03;7036971;28;20202;-79
2022/03/17 08:25:51;;;;;;;33.07;25.90;;;;;;;15.25;42.81;99610.50;7014698;28;20348;-82
2022/03/17 08:29:14;;;;;;;30.97;25.40;;;;;;;15.19;42.81;99624.09;7028701;28;20696;-80
2022/03/17 08:32:36;;;;;;;30.47;25.07;;;;;;;15.35;42.47;99631.81;7028181;28;20244;-80
2022/03/17 08:35:59;;;;;;;30.27;24.77;;;;;;;15.34;42.39;99628.25;7026870;28;20235;-80
2022/03/17 08:39:20;;;;;;;31.13;25.83;;;;;;;14.64;44.24;99635.53;7027355;28;20571;-80
2022/03/17 08:42:42;;;;;;;33.87;26.67;;;;;;;13.83;46.80;99631.31;7026878;28;20350;-80
2022/03/17 08:49:43;;;;;;;33.63;26.83;;;;;;;14.50;47.07;99639.28;7029347;28;20209;-80
2022/03/17 08:53:06;;;;;;;33.50;26.03;;;;;;;14.95;45.07;99636.50;7017388;28;20218;-80
2022/03/17 08:56:28;;;;;;;34.93;26.50;;;;;;;15.19;44.62;99624.09;7028578;28;20223;-79
2022/03/17 08:59:50;;;;;;;31.27;26.10;;;;;;;15.26;45.28;99642.03;7029066;28;20212;-79
2022/03/17 09:03:11;;;;;;;33.47;26.37;;;;;;;15.16;44.34;99644.38;7029536;28;20224;-80
2022/03/17 09:06:35;;;;;;;34.77;28.83;;;;;;;15.38;44.52;99644.94;7028866;28;20254;-79
2022/03/17 09:09:58;;;;;;;39.63;29.10;;;;;;;15.37;45.16;99649.56;7029624;28;20236;-80
2022/03/17 09:13:20;;;;;;;33.23;26.53;;;;;;;15.73;43.59;99649.81;7031798;28;20207;-80
2022/03/17 09:16:41;;;;;;;32.23;27.23;;;;;;;15.64;43.74;99645.66;7045282;28;20241;-79
2022/03/17 09:20:03;;;;;;;36.17;27.90;;;;;;;15.73;43.22;99622.63;7029877;28;20717;-79
2022/03/17 09:23:25;;;;;;;33.77;26.17;;;;;;;15.83;43.00;99652.91;7028722;28;20684;-79
2022/03/17 09:26:48;;;;;;;32.37;25.83;;;;;;;15.72;42.98;99648.16;7024517;28;20266;-79
2022/03/17 09:30:11;;;;;;;33.43;27.10;;;;;;;15.70;43.47;99655.66;7027180;28;20280;-79
2022/03/17 09:33:32;;;;;;;34.63;27.80;;;;;;;15.94;43.62;99644.03;7028244;28;20273;-79
2022/03/17 09:36:54;;;;;;;33.07;27.23;;;;;;;16.01;43.42;99655.72;7027836;28;20233;-79
2022/03/17 09:40:15;;;;;;;35.73;26.07;;;;;;;15.88;44.10;99644.06;7026923;28;20301;-79
2022/03/17 09:43:39;;;;;;;32.70;26.73;;;;;;;15.86;42.77;99657.06;7045412;28;20214;-80
2022/03/17 09:47:03;;;;;;;32.50;27.17;;;;;;;15.78;43.48;99660.03;7055089;28;20741;-80
2022/03/17 09:50:24;;;;;;;31.23;27.47;;;;;;;15.86;43.37;99619.00;7053921;28;20214;-79
2022/03/17 09:53:46;;;;;;;34.93;26.37;;;;;;;15.89;43.09;99651.19;7052042;28;20220;-80
2022/03/17 09:57:08;;;;;;;33.33;26.90;;;;;;;15.83;43.72;99658.34;7056383;28;20237;-80
2022/03/17 10:04:08;;;;;;;31.53;26.10;;;;;;;14.61;45.60;99669.34;7055997;28;20689;-81
2022/03/17 10:07:35;;;;;;;33.40;27.80;;;;;;;15.30;44.53;99665.03;7055637;28;20363;-81
2022/03/17 10:10:56;;;;;;;32.53;26.77;;;;;;;15.53;43.63;99649.09;7056884;28;20194;-80
2022/03/17 10:14:35;;;;;;;37.77;27.80;;;;;;;14.53;45.00;99683.13;7056937;28;20210;-80
2022/03/17 10:18:00;;;;;;;33.63;25.80;;;;;;;14.60;46.00;99680.41;7056668;28;20216;-81
2022/03/17 10:21:24;;;;;;;33.47;27.07;;;;;;;14.45;45.88;99672.47;7054416;28;20200;-80
2022/03/17 10:24:52;;;;;;;32.10;26.17;;;;;;;15.22;44.80;99683.44;7028748;28;20238;-80
2022/03/17 10:28:16;;;;;;;33.63;26.50;;;;;;;14.62;45.33;99678.34;7026901;28;20229;-81
2022/03/17 10:32:01;;;;;;;32.73;26.67;;;;;;;15.14;44.77;99689.94;7028808;28;20218;-80
2022/03/17 10:35:34;;;;;;;29.03;25.07;;;;;;;15.65;44.46;99692.72;7025766;28;20217;-81
2022/03/17 10:38:56;;;;;;;32.20;26.77;;;;;;;15.71;44.01;99681.84;7030278;28;20229;-83
2022/03/17 10:42:19;;;;;;;41.87;31.07;;;;;;;15.30;45.83;99688.63;7028511;28;20254;-82
2022/03/17 10:45:41;;;;;;;35.07;28.73;;;;;;;14.44;46.46;99651.81;7027981;28;20298;-81
2022/03/17 10:49:05;;;;;;;34.10;27.90;;;;;;;14.85;45.48;99703.13;7029086;28;20307;-79
2022/03/17 10:52:43;;;;;;;36.27;27.70;;;;;;;15.03;45.28;99714.19;7024369;28;20217;-79
2022/03/17 10:56:12;;;;;;;32.17;27.27;;;;;;;15.30;44.51;99691.34;7032171;28;20191;-80
2022/03/17 10:59:43;;;;;;;34.93;26.67;;;;;;;15.33;44.38;99715.44;7031341;28;20200;-80
2022/03/17 11:03:06;;;;;;;33.63;26.00;;;;;;;14.73;45.51;99712.97;7032000;28;20189;-79
2022/03/17 11:06:28;;;;;;;35.23;28.33;;;;;;;15.23;45.76;99709.56;7030721;28;20223;-80
2022/03/17 11:09:51;;;;;;;32.03;26.23;;;;;;;15.73;44.40;99725.09;7033888;28;20813;-79
2022/03/17 11:13:12;;;;;;;32.17;26.33;;;;;;;15.50;44.75;99722.88;7033064;28;20206;-79
2022/03/17 11:16:38;;;;;;;33.43;27.67;;;;;;;16.06;43.95;99720.34;7034416;28;20224;-80
2022/03/17 11:20:04;;;;;;;35.80;27.27;;;;;;;16.04;43.03;99703.41;7034323;28;20202;-79
2022/03/17 11:23:35;;;;;;;37.37;28.30;;;;;;;15.36;44.22;99717.72;7034662;28;20191;-79
2022/03/17 11:27:09;;;;;;;36.70;29.53;;;;;;;15.66;43.95;99729.72;7005408;28;20223;-80
2022/03/17 11:30:32;;;;;;;38.63;29.13;;;;;;;16.39;43.28;99726.47;7017632;28;20223;-79
2022/03/17 11:33:58;;;;;;;37.33;27.90;;;;;;;16.44;43.06;99732.03;7034535;28;20210;-79
2022/03/17 11:37:26;;;;;;;33.80;26.97;;;;;;;16.62;42.49;99729.41;7033624;28;20228;-82
2022/03/17 11:41:09;;;;;;;33.77;26.93;;;;;;;16.07;43.25;99732.88;7031104;28;20197;-80
2022/03/17 11:44:36;;;;;;;32.73;26.60;;;;;;;16.70;42.55;99729.97;7036000;28;20189;-79
2022/03/17 11:48:00;;;;;;;32.43;27.03;;;;;;;16.71;42.45;99736.25;7030778;28;20696;-80
2022/03/17 11:51:22;;;;;;;35.60;28.23;;;;;;;16.87;42.28;99731.06;7031323;28;20194;-79
2022/03/17 11:54:44;;;;;;;32.97;27.30;;;;;;;17.32;41.16;99753.50;7031576;28;20211;-80
2022/03/17 11:58:23;;;;;;;34.00;28.57;;;;;;;16.83;42.89;99735.31;7030056;28;20632;-79
2022/03/17 12:01:48;;;;;;;33.43;27.83;;;;;;;17.00;42.92;99751.94;7030105;28;20220;-80
2022/03/17 12:05:12;;;;;;;36.77;28.20;;;;;;;16.89;42.61;99753.50;7030274;28;20247;-79
2022/03/17 12:08:38;;;;;;;37.60;28.73;;;;;;;16.59;43.34;99755.22;7029891;28;20256;-79
2022/03/17 12:11:59;;;;;;;33.93;29.13;;;;;;;16.55;43.73;99753.97;7030907;28;20204;-78
2022/03/17 12:15:37;;;;;;;33.90;29.17;;;;;;;16.74;44.17;99757.63;7031036;28;20661;-79
2022/03/17 12:19:01;;;;;;;37.37;29.10;;;;;;;16.38;45.63;99765.56;7029903;28;20231;-80
2022/03/17 12:22:36;;;;;;;36.23;28.47;;;;;;;16.71;45.38;99760.75;7030099;28;20208;-80
2022/03/17 12:26:04;;;;;;;37.83;28.00;;;;;;;16.55;45.38;99767.59;7027038;28;20280;-80
2022/03/17 12:29:28;;;;;;;39.43;28.30;;;;;;;16.23;46.09;99737.81;7027290;28;20341;-79
2022/03/17 12:32:51;;;;;;;38.10;29.80;;;;;;;16.83;45.27;99767.16;7026145;28;20204;-80
2022/03/17 12:36:15;;;;;;;37.00;29.23;;;;;;;16.80;45.86;99776.59;7026286;28;20195;-80
2022/03/17 12:39:37;;;;;;;36.40;28.30;;;;;;;16.17;46.95;99769.44;7026824;28;20305;-80
2022/03/17 12:42:59;;;;;;;37.60;29.37;;;;;;;16.48;47.08;99774.97;7027058;28;20226;-80
2022/03/17 12:46:22;;;;;;;43.73;30.50;;;;;;;16.03;48.20;99762.41;7026615;28;20584;-79
2022/03/17 12:49:43;;;;;;;38.57;30.23;;;;;;;16.43;47.58;99787.53;7027447;28;20254;-80
2022/03/17 12:53:06;;;;;;;38.80;31.17;;;;;;;15.86;48.65;99736.75;7005327;28;20232;-80
2022/03/17 12:56:28;;;;;;;39.00;29.90;;;;;;;16.39;48.74;99779.00;7005494;28;20285;-79
2022/03/17 12:59:50;;;;;;;38.93;30.77;;;;;;;16.33;49.03;99781.75;6998938;28;20206;-83
2022/03/17 13:03:16;;;;;;;44.37;31.90;;;;;;;16.58;48.92;99788.09;6999826;28;20215;-79
2022/03/17 13:06:56;;;;;;;42.27;30.90;;;;;;;16.91;48.72;99791.41;6998754;28;20251;-81
2022/03/17 13:10:25;;;;;;;40.73;30.23;;;;;;;16.77;48.98;99787.13;7011883;28;20220;-79
2022/03/17 13:17:39;;;;;;;37.70;30.17;;;;;;;16.73;48.13;99794.03;7025211;28;20307;-79
2022/03/17 13:21:02;;;;;;;36.43;29.30;;;;;;;16.64;48.71;99795.38;7025908;28;20200;-80
2022/03/17 13:24:23;;;;;;;40.30;31.37;;;;;;;16.51;48.25;99803.66;7025945;28;20671;-80
2022/03/17 13:27:56;;;;;;;36.63;29.03;;;;;;;16.72;47.50;99786.94;7025165;28;20318;-79
2022/03/17 13:31:32;;;;;;;35.10;29.60;;;;;;;16.72;47.20;99801.41;7026059;28;20185;-79
2022/03/17 13:35:01;;;;;;;37.93;28.73;;;;;;;17.00;47.64;99806.44;7024802;28;20357;-79
2022/03/17 13:38:31;;;;;;;37.30;30.00;;;;;;;17.04;47.30;99800.31;7025481;28;20703;-79
2022/03/17 13:42:02;;;;;;;38.50;28.60;;;;;;;16.75;47.26;99786.50;7026190;28;20278;-79
2022/03/17 13:45:32;;;;;;;36.27;29.23;;;;;;;16.95;47.13;99814.44;7025667;28;20280;-79
2022/03/17 13:48:54;;;;;;;35.90;29.03;;;;;;;16.26;47.80;99808.97;7012252;28;20231;-79
2022/03/17 13:52:20;;;;;;;41.07;30.83;;;;;;;16.30;48.29;99803.94;7025527;28;20644;-79
2022/03/17 13:55:44;;;;;;;38.63;29.40;;;;;;;16.29;47.93;99813.97;7024772;28;20205;-79
2022/03/17 13:59:06;;;;;;;42.13;31.77;;;;;;;16.52;48.29;99817.00;7025226;28;20260;-79
2022/03/17 14:02:29;;;;;;;39.47;30.50;;;;;;;16.49;47.62;99814.75;7025037;28;20209;-79
2022/03/17 14:06:08;;;;;;;39.83;30.33;;;;;;;16.73;46.40;99821.28;7024460;28;20207;-79
2022/03/17 14:09:30;;;;;;;40.17;30.00;;;;;;;16.81;46.09;99824.56;7025020;28;20213;-80
2022/03/17 14:12:51;;;;;;;36.13;30.17;;;;;;;16.24;46.54;99821.97;7025611;28;20216;-79
2022/03/17 14:16:14;;;;;;;36.73;30.43;;;;;;;16.51;46.49;99828.97;7024133;28;20212;-79
2022/03/17 14:19:37;;;;;;;37.07;30.33;;;;;;;16.65;45.73;99835.16;7024760;28;20692;-80
2022/03/17 14:26:39;;;;;;;37.97;29.63;;;;;;;15.90;47.83;99843.22;7026262;28;20298;-79
2022/03/17 14:30:01;;;;;;;37.03;30.23;;;;;;;16.34;47.58;99840.56;7028309;28;20356;-79
2022/03/17 14:33:22;;;;;;;40.97;29.07;;;;;;;15.92;47.83;99830.28;7029125;28;20205;-79
2022/03/17 14:36:46;;;;;;;40.20;31.47;;;;;;;16.06;48.82;99853.66;7026040;28;20234;-79
2022/03/17 14:40:09;;;;;;;35.67;30.27;;;;;;;16.29;48.38;99853.97;7022564;28;20280;-79
2022/03/17 14:43:30;;;;;;;35.43;30.40;;;;;;;15.71;48.85;99850.41;7028075;28;20223;-79
2022/03/17 14:46:52;;;;;;;39.50;31.67;;;;;;;15.86;49.67;99861.88;7027742;28;20248;-79
2022/03/17 14:50:14;;;;;;;39.73;33.33;;;;;;;15.94;49.86;99872.53;7027929;28;20219;-80
2022/03/17 14:53:38;;;;;;;37.50;30.57;;;;;;;15.98;49.98;99875.66;7036620;28;20214;-79
2022/03/17 14:57:00;;;;;;;39.30;32.27;;;;;;;15.77;49.51;99865.03;7028381;28;20235;-79
2022/03/17 15:00:22;;;;;;;40.40;30.93;;;;;;;15.80;49.94;99872.78;7027239;28;20214;-79
2022/03/17 15:03:45;;;;;;;43.50;32.00;;;;;;;15.86;49.96;99867.31;7028238;28;20249;-79
2022/03/17 15:07:06;;;;;;;41.93;29.67;;;;;;;15.90;49.32;99878.59;7027034;28;20265;-78
2022/03/17 15:10:29;;;;;;;39.43;32.20;;;;;;;15.97;49.21;99869.38;7027346;28;20288;-77
2022/03/17 15:13:51;;;;;;;41.67;31.77;;;;;;;16.14;49.87;99875.16;7027273;28;20302;-77
2022/03/17 15:17:12;;;;;;;39.40;32.70;;;;;;;15.80;50.54;99878.22;7026638;28;20627;-78
2022/03/17 15:20:34;;;;;;;39.20;32.40;;;;;;;15.86;50.85;99880.91;7027339;28;20209;-77
2022/03/17 15:23:58;;;;;;;46.27;32.77;;;;;;;15.77;50.35;99893.06;7025138;28;20232;-78
2022/03/17 15:31:00;;;;;;;38.00;32.03;;;;;;;15.70;50.42;99883.25;7015555;28;20213;-78
2022/03/17 15:34:21;;;;;;;37.93;31.73;;;;;;;15.98;50.11;99900.13;7025693;28;20220;-78
2022/03/17 15:37:43;;;;;;;39.87;31.43;;;;;;;15.86;50.07;99901.84;7025178;28;20224;-78
2022/03/17 15:41:05;;;;;;;40.37;33.17;;;;;;;15.92;50.46;99911.88;7016032;28;20206;-78
2022/03/17 15:44:28;;;;;;;40.47;33.10;;;;;;;15.77;50.40;99912.09;7006156;28;20570;-78
2022/03/17 15:47:49;;;;;;;40.43;32.53;;;;;;;15.77;50.53;99905.81;7025448;28;20229;-77
2022/03/17 15:51:11;;;;;;;42.73;34.70;;;;;;;15.89;50.26;99915.00;7014936;28;20226;-77
2022/03/17 15:54:33;;;;;;;43.93;35.83;;;;;;;16.00;50.67;99908.91;7011447;28;20254;-77
2022/03/17 15:57:55;;;;;;;44.33;34.23;;;;;;;15.83;50.23;99916.69;7019108;28;20865;-77
2022/03/17 16:01:20;;;;;;;40.23;32.03;;;;;;;15.65;50.00;99927.38;7023668;28;20208;-78
2022/03/17 16:04:42;;;;;;;40.63;34.07;;;;;;;15.83;50.16;99919.41;7021954;28;20199;-78
2022/03/17 16:08:04;;;;;;;47.33;35.83;;;;;;;15.91;50.48;99924.63;7022803;28;20228;-77